Terminal Aerodrome Forecast
Issued by NWS

Home | Current Version | Previous Version | Text Only | Print | Product List | Glossary On
Versions: 1 2 3 4 5 6 7 8 9 10 11 12 13 14 15 16 17 18 19 20 21 22
753
FTUS41 KPBZ 211134
TAFLBE
TAF
KLBE 211134Z 2112/2212 21007KT P6SM SKC WS020/23035KT
     FM211500 22014G22KT P6SM FEW250
     FM212300 21009KT P6SM BKN120
     FM220900 29008KT 5SM -SHRASN BKN025
     FM221100 29009KT P6SM -SHSN BKN015=

USA.gov is the U.S. government's official web portal to all federal, state and local government web resources and services.